Hawaii METAR Reports

 

PHOG - Kahului, Hawaii, USA
Distance from station: WNW 8mi, 13km
Updated: Tue, 25-Apr-2017 9:54am HST
Partly Cloudy
Partly Cloudy
 Wind from NE
Wind: NE 21 mph , 33 km/h, Gust: 28 mph , 44 km/h
Temperature: 81°F , 27°C
Heat Index: 83°F , 28°C
Dew Point: 66°F , 19°C
Humidity: 62%
Barometer: 30.11 inHg , 1019.6 hPa
Clouds: Partly Cloudy
Visibility: 10 miles , 16 km
Cloud details: Few Clouds 3000 ft
Partly Cloudy 5000 ft
2017/04/25 19:54 PHOG 251954Z 05018G24KT 10SM FEW030 SCT050 27/19 A3011 RMK AO2 RAB20E29 SLP200 P0000 T02670189
PHJH - Lahaina/West Mau, Hawaii, USA
Distance from station: WNW 24mi, 39km
Updated: Mon, 24-Apr-2017 5:45pm HST
NOT Current
Few Clouds
Few Clouds
 Wind from ENE
Wind: ENE 15 mph , 24 km/h
Temperature: 81°F , 27°C
Heat Index: 82°F , 28°C
Dew Point: 61°F , 16°C
Humidity: 51%
Barometer: 30.03 inHg , 1016.9 hPa
Clouds: Few Clouds
Visibility: 15 miles , 24 km
Cloud details: Few Clouds 4000 ft
2017/04/25 03:45 PHJH 250345Z 07013KT 15SM FEW040 27/16 A3003 RMK LAST
 
PHNY - Lanai City Airpo, Hawaii, USA
Distance from station: W 40mi, 65km
Updated: Tue, 25-Apr-2017 9:56am HST
Overcast
Overcast
 Wind from NE
Wind: NE 17 mph , 28 km/h
Temperature: 73°F , 23°C
Dew Point: 64°F , 18°C
Humidity: 74%
Barometer: 30.15 inHg , 1021 hPa
Clouds: Overcast
Visibility: 10 miles , 16 km
Cloud details: Few Clouds 3000 ft
Overcast 3800 ft
2017/04/25 19:56 PHNY 251956Z AUTO 04015KT 10SM FEW030 OVC038 23/18 A3015 RMK AO2 SLP191 T02330183
PHMK - Molokai, Hawaii, USA
Distance from station: WNW 55mi, 88km
Updated: Tue, 25-Apr-2017 9:54am HST
Light rain, Partly cloudy
Light rain, Partly cloudy
 Wind from ENE
Wind: ENE 18 mph , 30 km/h, Gust: 31 mph , 50 km/h
Temperature: 68°F , 20°C
Dew Point: 66°F , 19°C
Humidity: 94%
Barometer: 30.13 inHg , 1020.3 hPa
Summary: Light Rain
Clouds: Partly Cloudy
Visibility: 10 miles , 16 km
Cloud details: Few Clouds 2000 ft
Partly Cloudy 4000 ft
2017/04/25 19:54 PHMK 251954Z 06016G27KT 10SM -RA FEW020 SCT040 20/19 A3013 RMK AO2 PK WND 06027/1949 RAB12E24B50 SLP208 P0000 T02000194
 
PHKO - Kailua/Kona, Hawaii, USA
Distance from station: SSE 79mi, 128km
Updated: Tue, 25-Apr-2017 9:53am HST
Clear
Clear
 Wind from WSW
Wind: WSW 9 mph , 15 km/h
Temperature: 82°F , 28°C
Heat Index: 84°F , 29°C
Dew Point: 64°F , 18°C
Humidity: 55%
Barometer: 30.07 inHg , 1018.3 hPa
Clouds: Clear
Visibility: 10 miles , 16 km
2017/04/25 19:53 PHKO 251953Z 25008KT 10SM CLR 28/18 A3007 RMK AO2 SLP182 T02780178
PHSF - Bradshaw Aaf/Haw, Hawaii, USA
Distance from station: SE 90mi, 145km
Updated: Tue, 25-Apr-2017 9:56am HST
Few Clouds
Few Clouds
 Wind from S
Wind: S 21 mph , 33 km/h, Gust: 31 mph , 50 km/h
Temperature: 59°F , 15°C
Dew Point: 46°F , 8°C
Humidity: 63%
Barometer: 30.36 inHg , 1028.1 hPa
Clouds: Few Clouds
Visibility: 10 miles , 16 km
Cloud details: Few Clouds 5000 ft
2017/04/25 19:56 PHSF 251956Z AUTO 18018G27KT 10SM FEW050 15/08 A3036 RMK AO2 PK WND 19027/52 SLP181 T01540079 $
 
PHNG - Kaneohe Mcas, Hawaii, USA
Distance from station: WNW 102mi, 164km
Updated: Tue, 25-Apr-2017 9:57am HST
Mostly Cloudy
Mostly Cloudy
 Wind from ENE
Wind: ENE 12 mph , 19 km/h, Gust: 18 mph , 30 km/h
Temperature: 81°F , 27°C
Heat Index: 85°F , 29°C
Dew Point: 70°F , 21°C
Humidity: 70%
Barometer: 30.10 inHg , 1019.3 hPa
Clouds: Mostly Cloudy
Visibility: 7 miles , 11 km
Cloud details: Mostly Cloudy 2600 ft
2017/04/25 19:57 PHNG 251957Z 07010G16KT 7SM BKN026 27/21 A3010 RMK SLP188 T02720211
PHNL - Honolulu, Hawaii, USA
Distance from station: WNW 108mi, 174km
Updated: Tue, 25-Apr-2017 9:53am HST
Partly Cloudy
Partly Cloudy
 Wind from ENE
Wind: ENE 15 mph , 24 km/h
Temperature: 82°F , 28°C
Heat Index: 83°F , 28°C
Dew Point: 63°F , 17°C
Humidity: 51%
Barometer: 30.11 inHg , 1019.6 hPa
Clouds: Partly Cloudy
Visibility: 10 miles , 16 km
Cloud details: Few Clouds 2500 ft
Partly Cloudy 4500 ft
2017/04/25 19:53 PHNL 251953Z 06013KT 10SM FEW025 SCT045 28/17 A3011 RMK AO2 SLP194 T02780172
 
PHTO - Hilo, Hawaii, USA
Distance from station: SE 114mi, 183km
Updated: Tue, 25-Apr-2017 9:53am HST
Mostly Cloudy
Mostly Cloudy
 Wind from S
Wind: S 9 mph , 15 km/h
Temperature: 81°F , 27°C
Heat Index: 82°F , 28°C
Dew Point: 63°F , 17°C
Humidity: 54%
Barometer: 30.14 inHg , 1020.7 hPa
Clouds: Mostly Cloudy
Visibility: 10 miles , 16 km
Cloud details: Partly Cloudy 3500 ft
Mostly Cloudy 8000 ft
Mostly Cloudy 22000 ft
2017/04/25 19:53 PHTO 251953Z 18008KT 10SM SCT035 BKN080 BKN220 27/17 A3014 RMK AO2 SLP203 T02670172
PHJR - Kalaeloa, Hawaii, USA
Distance from station: WNW 117mi, 189km
Updated: Tue, 25-Apr-2017 9:53am HST
Partly Cloudy
Partly Cloudy
 Wind from ENE
Wind: ENE 9 mph , 15 km/h, Gust: 18 mph , 30 km/h
Temperature: 86°F , 30°C
Heat Index: 87°F , 31°C
Dew Point: 63°F , 17°C
Humidity: 46%
Barometer: 30.12 inHg , 1020 hPa
Clouds: Partly Cloudy
Visibility: 10 miles , 16 km
Cloud details: Partly Cloudy 4000 ft
2017/04/25 19:53 PHJR 251953Z 07008G16KT 030V110 10SM SCT040 30/17 A3012 RMK AO2 SLP204 T03000172
 
PHHI - Wheeler Afb/Oahu, Hawaii, USA
Distance from station: WNW 120mi, 193km
Updated: Tue, 25-Apr-2017 9:58am HST
Few Clouds
Few Clouds
 Wind from ENE
Wind: ENE 12 mph , 19 km/h, Gust: 20 mph , 31 km/h
Temperature: 79°F , 26°C
Dew Point: 64°F , 18°C
Humidity: 61%
Barometer: 30.13 inHg , 1020.3 hPa
Clouds: Few Clouds
Visibility: 10 miles , 16 km
Cloud details: Few Clouds 2500 ft
2017/04/25 19:58 PHHI 251958Z 07010G17KT 10SM FEW025 26/18 A3013 RMK AO2A SLP194 T02610178 $
PHLI - Lihue/Kauai Is, Hawaii, USA
Distance from station: WNW 209mi, 336km
Updated: Tue, 25-Apr-2017 9:53am HST
Partly Cloudy
Partly Cloudy
 Wind from NE
Wind: NE 14 mph , 22 km/h
Temperature: 82°F , 28°C
Heat Index: 85°F , 29°C
Dew Point: 68°F , 20°C
Humidity: 62%
Barometer: 30.15 inHg , 1021 hPa
Clouds: Partly Cloudy
Visibility: 10 miles , 16 km
Cloud details: Few Clouds 2100 ft
Partly Cloudy 2700 ft
2017/04/25 19:53 PHLI 251953Z 05012KT 10SM FEW021 SCT027 28/20 A3015 RMK AO2 SLP206 T02780200
 
PHBK - Barking Sands/Ka, Hawaii, USA
Distance from station: WNW 237mi, 382km
Updated: Tue, 25-Apr-2017 9:56am HST
Few Clouds
Few Clouds
 Wind from WNW
Wind: WNW 7 mph , 11 km/h
Barometer: 30.11 inHg , 1019.6 hPa
Clouds: Few Clouds
Visibility: 10 miles , 16 km
Cloud details: Few Clouds 3700 ft
2017/04/25 19:56 PHBK 251956Z AUTO 30006KT 10SM FEW037 A3011 RMK AO2 SLP200 $